Time;durP1;ratioP1;P1;durP2;ratioP2;P2;SDS_P1;SDS_P2;PMS_P1;PMS_P2;Temp;Humidity;BMP_temperature;BMP_pressure;BME280_temperature;BME280_humidity;BME280_pressure;Samples;Min_cycle;Max_cycle;Signal;HPM_P1;HPM_P2
2022/11/23 00:01:43;;;;;;;0.00;0.00;;;;;;;5.72;100.00;98100.84;6249923;22;20466;-75
2022/11/23 00:04:12;;;;;;;0.10;0.10;;;;;;;5.57;100.00;98090.19;6187827;23;20004;-73
2022/11/23 00:06:37;;;;;;;0.00;0.00;;;;;;;5.51;100.00;98099.47;6238484;22;20016;-73
2022/11/23 00:09:05;;;;;;;1.45;1.35;;;;;;;5.40;100.00;98087.94;6225835;22;20023;-74
2022/11/23 00:11:33;;;;;;;0.00;0.00;;;;;;;5.38;100.00;98090.13;6252086;22;20003;-75
2022/11/23 00:14:08;;;;;;;0.00;0.00;;;;;;;5.18;100.00;98059.47;6275640;22;20047;-73
2022/11/23 00:16:36;;;;;;;0.00;0.00;;;;;;;5.21;100.00;98068.91;6280608;22;20015;-75
2022/11/23 00:19:02;;;;;;;0.00;0.00;;;;;;;5.20;100.00;98061.91;6274767;22;20095;-73
2022/11/23 00:21:29;;;;;;;0.00;0.00;;;;;;;5.29;100.00;98070.19;6055468;22;20613;-73
2022/11/23 00:23:55;;;;;;;0.00;0.00;;;;;;;5.22;100.00;98065.91;6248967;22;20110;-74
2022/11/23 00:26:20;;;;;;;0.00;0.00;;;;;;;5.18;100.00;98075.75;6222644;22;20418;-73
2022/11/23 00:28:46;;;;;;;0.00;0.00;;;;;;;5.21;100.00;98068.91;6278556;22;20086;-70
2022/11/23 00:31:15;;;;;;;0.00;0.00;;;;;;;5.23;100.00;98072.16;6245275;22;20007;-72
2022/11/23 00:33:41;;;;;;;0.00;0.00;;;;;;;5.27;100.00;98062.38;6277214;22;20047;-72
2022/11/23 00:36:07;;;;;;;0.00;0.00;;;;;;;5.22;100.00;98054.28;6249521;22;20065;-71
2022/11/23 00:38:33;;;;;;;0.00;0.00;;;;;;;5.05;100.00;98033.88;6276905;22;20058;-72
2022/11/23 00:41:20;;;;;;;0.00;0.00;;;;;;;5.01;100.00;98043.66;6252350;22;20008;-74
2022/11/23 00:43:46;;;;;;;0.00;0.00;;;;;;;4.94;100.00;98037.78;6248355;22;20003;-73
2022/11/23 00:46:18;;;;;;;0.00;0.00;;;;;;;4.89;100.00;98041.38;6224742;22;20007;-72
2022/11/23 00:48:46;;;;;;;0.00;0.00;;;;;;;4.82;100.00;98031.94;6249490;22;20008;-73
2022/11/23 00:51:24;;;;;;;0.00;0.00;;;;;;;4.82;100.00;98023.81;6251075;22;19999;-72
2022/11/23 00:53:50;;;;;;;0.00;0.00;;;;;;;4.74;100.00;98027.97;6249907;22;20007;-72
2022/11/23 00:56:17;;;;;;;0.00;0.00;;;;;;;4.65;100.00;98024.28;6249570;22;20003;-73
2022/11/23 00:58:46;;;;;;;0.00;0.00;;;;;;;4.55;100.00;98025.19;6246680;22;20011;-73
2022/11/23 01:01:15;;;;;;;0.03;0.03;;;;;;;4.49;100.00;98015.50;6249569;22;20011;-73
2022/11/23 01:03:43;;;;;;;0.10;0.10;;;;;;;4.49;100.00;98021.69;6245338;22;19999;-72
2022/11/23 01:06:29;;;;;;;0.00;0.00;;;;;;;4.46;100.00;98010.66;6278534;22;20795;-73
2022/11/23 01:08:58;;;;;;;0.00;0.00;;;;;;;4.49;100.00;98020.91;6296916;22;20023;-72
2022/11/23 01:11:26;;;;;;;0.00;0.00;;;;;;;4.44;100.00;98018.22;6279193;22;20025;-73
2022/11/23 01:13:52;;;;;;;0.00;0.00;;;;;;;4.46;100.00;98010.66;6279631;22;19999;-72
2022/11/23 01:16:26;;;;;;;0.00;0.00;;;;;;;4.42;100.00;97998.78;6277140;22;19996;-74
2022/11/23 01:19:05;;;;;;;0.00;0.00;;;;;;;4.46;100.00;97997.91;6281768;22;20002;-73
2022/11/23 01:21:32;;;;;;;0.00;0.00;;;;;;;4.55;100.00;98000.81;6280382;22;20062;-73
2022/11/23 01:23:58;;;;;;;0.00;0.00;;;;;;;4.58;100.00;97986.72;6310016;22;20003;-74
2022/11/23 01:26:24;;;;;;;0.00;0.00;;;;;;;4.61;100.00;97977.22;6251454;22;20003;-74
2022/11/23 01:28:50;;;;;;;0.00;0.00;;;;;;;4.55;100.00;97966.41;6282551;22;20431;-73
2022/11/23 01:31:22;;;;;;;0.00;0.00;;;;;;;4.55;100.00;97961.00;6281781;22;20006;-73
2022/11/23 01:33:52;;;;;;;0.00;0.00;;;;;;;4.49;100.00;97950.53;6309858;22;19999;-74
2022/11/23 01:36:20;;;;;;;0.00;0.00;;;;;;;4.48;100.00;97948.91;6307597;22;19999;-73
2022/11/23 01:38:47;;;;;;;0.00;0.00;;;;;;;4.46;100.00;97951.13;6310301;22;20496;-73
2022/11/23 01:41:34;;;;;;;0.00;0.00;;;;;;;4.41;100.00;97937.63;6304899;22;19999;-73
2022/11/23 01:44:19;;;;;;;0.00;0.00;;;;;;;4.33;100.00;97939.84;6279789;22;20011;-72
2022/11/23 01:46:45;;;;;;;;;;;;;;;4.29;100.00;97936.13;6279817;22;20030;-72
2022/11/23 01:49:10;;;;;;;0.00;0.00;;;;;;;4.26;100.00;97931.28;6255176;22;19902;-73
2022/11/23 01:51:40;;;;;;;0.05;0.05;;;;;;;4.29;100.00;97919.06;6276304;22;20098;-72
2022/11/23 01:54:24;;;;;;;0.00;0.00;;;;;;;4.25;100.00;97909.91;6281857;22;20406;-72
2022/11/23 01:56:54;;;;;;;0.10;0.10;;;;;;;4.23;100.00;97907.50;6275956;22;20013;-72
2022/11/23 01:59:22;;;;;;;0.00;0.00;;;;;;;4.36;100.00;97892.50;6281534;22;20034;-73
2022/11/23 02:01:47;;;;;;;0.00;0.00;;;;;;;4.54;100.00;97894.47;6252059;22;20950;-73
2022/11/23 02:04:25;;;;;;;0.08;0.08;;;;;;;4.65;100.00;97884.31;6252987;22;20003;-71
2022/11/23 02:06:52;;;;;;;0.00;0.00;;;;;;;4.84;100.00;97878.13;6277662;22;19999;-73
2022/11/23 02:09:18;;;;;;;0.00;0.00;;;;;;;5.00;100.00;97874.13;6250562;22;20031;-72
2022/11/23 02:11:44;;;;;;;0.00;0.00;;;;;;;5.15;100.00;97864.97;6276308;22;20019;-71
2022/11/23 02:14:10;;;;;;;0.00;0.00;;;;;;;5.33;100.00;97870.66;6243120;22;20422;-71
2022/11/23 02:16:37;;;;;;;0.00;0.00;;;;;;;5.49;100.00;97863.13;6225616;22;20000;-72
2022/11/23 02:19:06;;;;;;;0.00;0.00;;;;;;;5.55;100.00;97867.38;6248042;22;20057;-73
2022/11/23 02:21:32;;;;;;;0.00;0.00;;;;;;;5.46;100.00;97874.53;6278282;22;20102;-73
2022/11/23 02:24:03;;;;;;;0.00;0.00;;;;;;;5.35;100.00;97874.69;6250602;22;20023;-73
2022/11/23 02:26:32;;;;;;;0.10;0.10;;;;;;;5.21;100.00;97869.22;6251249;22;20418;-73
2022/11/23 02:29:19;;;;;;;0.10;0.10;;;;;;;5.11;100.00;97865.84;6254186;22;20087;-73
2022/11/23 02:31:45;;;;;;;0.00;0.00;;;;;;;5.05;100.00;97865.09;6252549;22;20422;-73
2022/11/23 02:34:11;;;;;;;0.00;0.00;;;;;;;4.95;100.00;97857.94;6229883;22;20147;-74
2022/11/23 02:36:49;;;;;;;0.00;0.00;;;;;;;5.02;100.00;97860.28;6222638;22;20008;-75
2022/11/23 02:39:19;;;;;;;0.00;0.00;;;;;;;5.13;100.00;97855.53;6253257;22;20103;-72
2022/11/23 02:41:47;;;;;;;0.00;0.00;;;;;;;5.26;100.00;97841.25;6274719;22;20002;-74
2022/11/23 02:44:25;;;;;;;0.00;0.00;;;;;;;5.31;100.00;97835.75;6252822;22;20035;-73
2022/11/23 02:46:51;;;;;;;0.00;0.00;;;;;;;5.44;100.00;97822.56;6251567;22;20019;-72
2022/11/23 02:49:17;;;;;;;0.00;0.00;;;;;;;5.60;100.00;97818.47;6252377;22;20034;-73
2022/11/23 02:51:42;;;;;;;0.00;0.00;;;;;;;5.77;100.00;97818.72;6198115;22;20004;-73
2022/11/23 02:54:08;;;;;;;0.00;0.00;;;;;;;5.94;100.00;97803.78;6202116;22;20039;-73
2022/11/23 02:56:33;;;;;;;0.00;0.00;;;;;;;6.06;100.00;97801.41;6220418;22;19996;-73
2022/11/23 02:58:59;;;;;;;0.00;0.00;;;;;;;6.18;100.00;97797.41;6227141;22;20057;-74
2022/11/23 03:01:24;;;;;;;0.00;0.00;;;;;;;6.18;100.00;97792.78;6277554;22;20283;-72
2022/11/23 03:03:50;;;;;;;0.00;0.00;;;;;;;5.99;100.00;97782.03;6203742;22;20353;-73
2022/11/23 03:06:15;;;;;;;0.00;0.00;;;;;;;5.88;100.00;97781.38;6204726;22;20010;-73
2022/11/23 03:08:41;;;;;;;0.00;0.00;;;;;;;5.98;100.00;97772.28;6225742;22;20024;-72
2022/11/23 03:11:06;;;;;;;0.00;0.00;;;;;;;6.18;100.00;97776.50;6228396;22;20026;-73
2022/11/23 03:13:32;;;;;;;0.00;0.00;;;;;;;6.33;100.00;97771.88;6283337;22;20060;-73
2022/11/23 03:15:57;;;;;;;0.00;0.00;;;;;;;6.52;100.00;97769.03;6224908;22;20007;-73
2022/11/23 03:18:24;;;;;;;0.00;0.00;;;;;;;6.68;100.00;97767.59;6210251;22;20071;-75
2022/11/23 03:20:49;;;;;;;0.00;0.00;;;;;;;6.78;100.00;97756.50;6231406;22;20322;-76
2022/11/23 03:23:15;;;;;;;0.00;0.00;;;;;;;6.96;100.00;97729.47;6200621;22;20034;-75
2022/11/23 03:25:40;;;;;;;0.00;0.00;;;;;;;7.08;100.00;97724.31;6241393;22;20026;-75
2022/11/23 03:28:06;;;;;;;0.00;0.00;;;;;;;7.17;100.00;97718.94;6237601;22;20067;-75
2022/11/23 03:30:31;;;;;;;0.00;0.00;;;;;;;7.24;100.00;97715.75;6228288;22;20008;-74
2022/11/23 03:32:57;;;;;;;0.00;0.00;;;;;;;7.26;100.00;97705.41;6231458;22;20006;-74
2022/11/23 03:35:22;;;;;;;0.00;0.00;;;;;;;7.34;100.00;97720.94;6229246;22;20004;-74
2022/11/23 03:37:48;;;;;;;0.00;0.00;;;;;;;7.44;100.00;97717.16;6251564;22;20003;-74
2022/11/23 03:40:13;;;;;;;0.00;0.00;;;;;;;7.41;100.00;97701.47;6250741;22;20007;-75
2022/11/23 03:42:40;;;;;;;0.00;0.00;;;;;;;7.41;100.00;97704.19;6202792;22;20011;-75
2022/11/23 03:45:06;;;;;;;0.00;0.00;;;;;;;7.40;100.00;97700.66;6281511;22;20414;-74
2022/11/23 03:47:32;;;;;;;0.00;0.00;;;;;;;7.35;100.00;97692.66;6279357;22;20430;-75
2022/11/23 03:49:57;;;;;;;0.00;0.00;;;;;;;7.36;100.00;97688.81;6255694;22;20150;-75
2022/11/23 03:52:32;;;;;;;0.00;0.00;;;;;;;7.46;100.00;97688.56;6239227;22;20043;-77
2022/11/23 03:54:58;;;;;;;0.00;0.00;;;;;;;7.44;100.00;97690.75;6252703;22;19999;-74
2022/11/23 03:57:23;;;;;;;0.00;0.00;;;;;;;7.43;100.00;97682.91;6226186;22;20004;-74
2022/11/23 03:59:49;;;;;;;0.00;0.00;;;;;;;7.39;100.00;97692.81;6249724;22;20102;-75
2022/11/23 04:02:14;;;;;;;0.00;0.00;;;;;;;7.26;100.00;97675.50;6276341;22;20004;-73
2022/11/23 04:04:42;;;;;;;0.00;0.00;;;;;;;7.26;100.00;97667.34;6248746;22;20007;-73
2022/11/23 04:07:07;;;;;;;0.00;0.00;;;;;;;7.22;100.00;97667.16;6245736;22;20007;-74
2022/11/23 04:09:33;;;;;;;0.00;0.00;;;;;;;7.21;100.00;97667.47;6275328;22;20081;-74
2022/11/23 04:11:58;;;;;;;0.00;0.00;;;;;;;7.21;100.00;97664.75;6254815;22;20023;-74
2022/11/23 04:14:24;;;;;;;0.00;0.00;;;;;;;7.22;100.00;97650.84;6280698;22;20014;-75
2022/11/23 04:16:49;;;;;;;0.00;0.00;;;;;;;7.21;100.00;97638.34;6229207;22;20451;-74
2022/11/23 04:19:15;;;;;;;0.00;0.00;;;;;;;7.23;100.00;97635.31;6231318;22;20088;-74
2022/11/23 04:21:40;;;;;;;0.00;0.00;;;;;;;7.21;100.00;97626.69;6306197;22;20011;-74
2022/11/23 04:24:06;;;;;;;0.00;0.00;;;;;;;7.22;100.00;97620.94;6257179;22;20386;-75
2022/11/23 04:26:31;;;;;;;0.00;0.00;;;;;;;7.31;100.00;97610.09;6311031;22;20003;-74
2022/11/23 04:28:57;;;;;;;0.00;0.00;;;;;;;7.34;100.00;97626.59;6280742;22;20369;-75
2022/11/23 04:31:22;;;;;;;0.00;0.00;;;;;;;7.47;100.00;97624.88;6281118;22;20010;-75
2022/11/23 04:33:47;;;;;;;0.00;0.00;;;;;;;7.74;100.00;97633.94;6252997;22;20081;-75
2022/11/23 04:36:14;;;;;;;0.00;0.00;;;;;;;7.93;100.00;97622.78;6256716;22;20013;-74
2022/11/23 04:38:39;;;;;;;0.00;0.00;;;;;;;8.09;100.00;97601.38;6255476;22;19995;-74
2022/11/23 04:41:05;;;;;;;0.00;0.00;;;;;;;8.24;100.00;97608.25;6282847;22;20041;-73
2022/11/23 04:43:30;;;;;;;0.10;0.10;;;;;;;8.34;100.00;97596.25;6258449;22;19987;-73
2022/11/23 04:45:57;;;;;;;0.30;0.30;;;;;;;8.42;100.00;97598.16;6227281;22;20007;-73
2022/11/23 04:48:23;;;;;;;0.10;0.10;;;;;;;8.54;100.00;97601.09;6255504;22;20007;-73
2022/11/23 04:50:50;;;;;;;0.10;0.10;;;;;;;8.56;100.00;97598.84;6275961;22;20034;-74
2022/11/23 04:53:16;;;;;;;0.00;0.00;;;;;;;8.51;100.00;97590.84;6311336;22;20080;-74
2022/11/23 04:55:41;;;;;;;0.10;0.10;;;;;;;8.40;100.00;97562.28;6253032;22;20426;-75
2022/11/23 04:58:07;;;;;;;0.10;0.10;;;;;;;8.44;100.00;97570.59;6231206;22;20015;-74
2022/11/23 05:00:32;;;;;;;0.00;0.00;;;;;;;8.46;100.00;97561.03;6255525;22;20357;-74
2022/11/23 05:02:59;;;;;;;0.10;0.10;;;;;;;8.41;100.00;97547.56;6282821;22;20011;-74
2022/11/23 05:05:25;;;;;;;0.10;0.10;;;;;;;8.44;100.00;97536.06;6257945;22;20011;-75
2022/11/23 05:07:50;;;;;;;0.00;0.00;;;;;;;8.47;100.00;97534.59;6275860;22;20012;-74
2022/11/23 05:10:16;;;;;;;0.00;0.00;;;;;;;8.50;100.00;97529.31;6251990;22;20015;-74
2022/11/23 05:12:41;;;;;;;0.00;0.00;;;;;;;8.56;100.00;97533.47;6224677;22;20032;-73
2022/11/23 05:15:12;;;;;;;0.00;0.00;;;;;;;8.48;100.00;97515.19;6248158;22;20373;-73
2022/11/23 05:17:40;;;;;;;0.10;0.10;;;;;;;8.51;100.00;97517.31;6250822;22;20031;-73
2022/11/23 05:20:08;;;;;;;0.03;0.03;;;;;;;8.45;100.00;97476.94;6224214;22;20099;-74
2022/11/23 05:22:33;;;;;;;0.10;0.10;;;;;;;8.58;100.00;97486.03;6226021;22;20041;-73
2022/11/23 05:24:59;;;;;;;0.20;0.20;;;;;;;8.62;100.00;97465.22;6248787;22;20411;-75
2022/11/23 05:27:24;;;;;;;0.00;0.00;;;;;;;8.62;100.00;97473.38;6227692;22;20638;-72
2022/11/23 05:29:49;;;;;;;0.38;0.38;;;;;;;8.70;100.00;97467.09;6276784;22;20022;-73
2022/11/23 05:32:17;;;;;;;0.30;0.30;;;;;;;8.66;100.00;97460.69;6249808;22;20007;-72
2022/11/23 05:34:43;;;;;;;0.00;0.00;;;;;;;8.65;100.00;97448.22;6251358;22;20003;-72
2022/11/23 05:37:08;;;;;;;0.00;0.00;;;;;;;8.70;100.00;97461.63;6247528;22;20005;-72
2022/11/23 05:39:33;;;;;;;0.15;0.15;;;;;;;8.75;100.00;97450.56;6248310;22;20004;-74
2022/11/23 05:41:59;;;;;;;0.00;0.00;;;;;;;8.74;100.00;97444.31;6197668;22;20003;-74
2022/11/23 05:44:27;;;;;;;0.10;0.10;;;;;;;8.82;100.00;97442.69;6249644;22;20034;-74
2022/11/23 05:46:54;;;;;;;37.90;1.35;;;;;;;8.86;100.00;97470.06;6225358;22;20004;-74
2022/11/23 05:49:27;;;;;;;0.10;0.10;;;;;;;8.78;100.00;97419.16;6249964;22;20008;-74
2022/11/23 05:51:52;;;;;;;0.20;0.15;;;;;;;8.82;100.00;97414.63;6227894;22;20436;-74
2022/11/23 05:54:18;;;;;;;0.10;0.10;;;;;;;8.97;100.00;97427.72;6196776;22;20079;-73
2022/11/23 05:56:43;;;;;;;0.28;0.20;;;;;;;8.96;100.00;97420.66;6224556;22;20014;-72
2022/11/23 05:59:10;;;;;;;0.15;0.15;;;;;;;9.04;100.00;97421.75;6224930;22;20117;-74
2022/11/23 06:01:36;;;;;;;0.10;0.10;;;;;;;9.06;100.00;97405.84;6250752;22;20422;-74
2022/11/23 06:04:01;;;;;;;0.10;0.10;;;;;;;9.12;100.00;97401.00;6224894;22;20007;-72
2022/11/23 06:06:26;;;;;;;0.73;0.38;;;;;;;9.18;100.00;97399.69;6247818;22;20865;-73
2022/11/23 06:09:01;;;;;;;5.18;1.77;;;;;;;9.17;100.00;97382.53;6243898;22;20026;-74
2022/11/23 06:11:26;;;;;;;2.17;0.75;;;;;;;9.22;100.00;97382.31;6277925;22;20299;-73
2022/11/23 06:13:52;;;;;;;0.00;0.00;;;;;;;9.24;100.00;97387.44;6282335;22;20014;-74
2022/11/23 06:16:18;;;;;;;0.00;0.00;;;;;;;9.30;100.00;97391.59;6254637;22;20333;-74
2022/11/23 06:18:43;;;;;;;0.00;0.00;;;;;;;9.32;100.00;97372.19;6088425;22;20570;-74
2022/11/23 06:21:31;;;;;;;0.00;0.00;;;;;;;9.32;100.00;97361.28;5629412;22;20006;-74
2022/11/23 06:23:57;;;;;;;0.00;0.00;;;;;;;9.31;100.00;97371.38;5386542;22;20668;-78
2022/11/23 06:26:22;;;;;;;0.00;0.00;;;;;;;9.40;100.00;97369.38;6224369;22;20007;-76
2022/11/23 06:28:48;;;;;;;0.10;0.10;;;;;;;9.40;100.00;97353.03;6278172;22;20007;-76
2022/11/23 06:31:13;;;;;;;0.00;0.00;;;;;;;9.45;100.00;97354.75;6277582;22;19995;-73
2022/11/23 06:33:39;;;;;;;0.00;0.00;;;;;;;9.42;100.00;97339.06;6278951;22;20003;-73
2022/11/23 06:36:07;;;;;;;0.00;0.00;;;;;;;9.49;100.00;97355.69;6234845;22;20003;-74
2022/11/23 06:38:32;;;;;;;0.15;0.15;;;;;;;9.46;100.00;97353.59;5575346;22;21006;-75
2022/11/23 06:40:59;;;;;;;0.00;0.00;;;;;;;9.52;100.00;97338.63;6279856;22;20000;-74
2022/11/23 06:43:25;;;;;;;0.00;0.00;;;;;;;9.58;100.00;97342.75;6280661;22;20060;-74
2022/11/23 06:45:59;;;;;;;0.00;0.00;;;;;;;9.56;100.00;97338.75;6281412;22;19995;-74
2022/11/23 06:48:24;;;;;;;0.00;0.00;;;;;;;9.59;100.00;97328.00;6309016;22;19997;-75
2022/11/23 06:50:52;;;;;;;0.10;0.10;;;;;;;9.59;100.00;97314.34;6304608;22;20085;-75
2022/11/23 06:53:20;;;;;;;0.00;0.00;;;;;;;9.62;100.00;97296.50;6233185;22;20011;-75
2022/11/23 06:55:45;;;;;;;0.15;0.15;;;;;;;9.66;100.00;97300.16;6252848;22;20622;-75
2022/11/23 06:58:11;;;;;;;3.15;1.38;;;;;;;9.72;100.00;97282.41;6310253;22;19999;-75
2022/11/23 07:00:36;;;;;;;0.00;0.00;;;;;;;9.67;100.00;97276.41;6253819;22;20064;-74
2022/11/23 07:03:02;;;;;;;0.00;0.00;;;;;;;9.75;100.00;97283.69;6227131;22;20011;-75
2022/11/23 07:05:27;;;;;;;0.00;0.00;;;;;;;9.70;100.00;97262.09;6253397;22;20015;-74
2022/11/23 07:07:56;;;;;;;0.38;0.38;;;;;;;9.75;100.00;97261.84;6279306;22;20019;-74
2022/11/23 07:10:24;;;;;;;0.10;0.10;;;;;;;9.79;100.00;97276.44;5952307;22;20282;-73
2022/11/23 07:12:50;;;;;;;0.65;0.55;;;;;;;9.73;100.00;97250.50;5797878;22;20015;-74
2022/11/23 07:15:20;;;;;;;0.00;0.00;;;;;;;9.80;100.00;97261.66;6228850;22;20007;-75
2022/11/23 07:17:45;;;;;;;0.00;0.00;;;;;;;9.72;100.00;97248.91;6278588;22;20038;-75
2022/11/23 07:20:16;;;;;;;0.00;0.00;;;;;;;9.75;100.00;97259.13;6282148;22;20003;-74
2022/11/23 07:22:41;;;;;;;0.00;0.00;;;;;;;9.78;100.00;97261.19;6307698;22;20000;-74
2022/11/23 07:25:17;;;;;;;0.00;0.00;;;;;;;9.81;100.00;97274.16;6254297;22;20216;-73
2022/11/23 07:27:43;;;;;;;0.10;0.10;;;;;;;9.76;100.00;97277.88;6306732;22;20003;-73
2022/11/23 07:30:12;;;;;;;0.10;0.00;;;;;;;9.75;100.00;97294.59;6277574;22;20325;-72
2022/11/23 07:32:37;;;;;;;0.52;0.20;;;;;;;9.73;100.00;97315.97;6255685;22;20004;-74
2022/11/23 07:35:03;;;;;;;0.38;0.30;;;;;;;9.78;100.00;97337.59;6279824;22;20068;-76
2022/11/23 07:37:31;;;;;;;0.00;0.00;;;;;;;9.72;100.00;97326.06;6281666;22;20028;-77
2022/11/23 07:39:59;;;;;;;0.00;0.00;;;;;;;9.65;100.00;97339.50;6280228;22;20011;-75
2022/11/23 07:42:26;;;;;;;0.00;0.00;;;;;;;9.46;100.00;97361.78;6281551;22;20030;-75
2022/11/23 07:44:54;;;;;;;0.00;0.00;;;;;;;9.30;100.00;97358.06;6258082;22;20162;-75
2022/11/23 07:47:19;;;;;;;0.00;0.00;;;;;;;9.17;100.00;97368.09;6256239;22;20013;-75
2022/11/23 07:49:45;;;;;;;0.00;0.00;;;;;;;9.03;100.00;97382.00;6158122;22;20379;-76
2022/11/23 07:52:19;;;;;;;0.00;0.00;;;;;;;8.85;100.00;97387.53;5904303;22;20389;-76
2022/11/23 07:54:44;;;;;;;0.00;0.00;;;;;;;8.74;100.00;97397.19;5663538;22;20010;-76
2022/11/23 07:57:10;;;;;;;0.00;0.00;;;;;;;8.69;100.00;97400.13;6259520;22;20333;-76
2022/11/23 07:59:38;;;;;;;0.00;0.00;;;;;;;8.61;100.00;97425.47;6282826;22;19991;-77
2022/11/23 08:02:03;;;;;;;0.20;0.20;;;;;;;8.56;100.00;97408.16;6278733;22;20049;-75
2022/11/23 08:04:29;;;;;;;0.00;0.00;;;;;;;8.43;100.00;97420.03;6309902;22;19999;-75
2022/11/23 08:06:54;;;;;;;0.10;0.10;;;;;;;8.44;100.00;97442.63;6282017;22;20053;-74
2022/11/23 08:09:20;;;;;;;0.35;0.20;;;;;;;8.35;100.00;97448.91;6260349;22;20039;-75
2022/11/23 08:11:54;;;;;;;0.00;0.00;;;;;;;8.25;100.00;97440.25;6247041;22;20000;-76
2022/11/23 08:14:22;;;;;;;;;;;;;;;8.24;100.00;97480.31;6226761;22;20007;-76
2022/11/23 08:16:51;;;;;;;0.10;0.10;;;;;;;8.17;100.00;97472.63;6276207;22;19907;-75
2022/11/23 08:19:24;;;;;;;0.20;0.20;;;;;;;8.16;100.00;97486.56;6228139;22;20107;-76
2022/11/23 08:21:54;;;;;;;0.22;0.22;;;;;;;8.14;100.00;97489.59;6249732;22;20002;-75
2022/11/23 08:24:22;;;;;;;0.75;0.75;;;;;;;8.16;100.00;97506.44;6227004;22;20422;-76
2022/11/23 08:26:47;;;;;;;0.10;0.10;;;;;;;8.38;100.00;97504.63;6225008;22;20003;-76
2022/11/23 08:29:25;;;;;;;;;;;;;;;;;;;;;
2022/11/23 08:31:51;;;;;;;0.10;0.10;;;;;;;8.71;100.00;97534.88;6277163;22;20016;-75
2022/11/23 08:34:24;;;;;;;0.10;0.10;;;;;;;8.93;100.00;97551.34;6250766;22;20014;-76
2022/11/23 08:36:51;;;;;;;0.00;0.00;;;;;;;9.23;100.00;97544.03;6247622;22;20018;-76
2022/11/23 08:39:18;;;;;;;0.10;0.10;;;;;;;9.20;100.00;97537.28;6223624;22;20342;-76
2022/11/23 08:41:44;;;;;;;0.10;0.10;;;;;;;9.16;100.00;97549.19;6245384;22;20000;-77
2022/11/23 08:44:11;;;;;;;0.00;0.00;;;;;;;9.01;100.00;97575.03;6246405;22;20007;-75
2022/11/23 08:46:59;;;;;;;0.00;0.00;;;;;;;8.87;100.00;97559.66;6247469;22;20075;-75
2022/11/23 08:49:25;;;;;;;0.10;0.10;;;;;;;8.87;100.00;97576.03;6223072;22;20019;-75
2022/11/23 08:51:50;;;;;;;0.20;0.20;;;;;;;8.88;100.00;97588.53;6251412;22;20007;-76
2022/11/23 08:54:15;;;;;;;0.10;0.10;;;;;;;8.90;100.00;97599.91;6196119;22;20023;-75
2022/11/23 08:56:43;;;;;;;0.10;0.10;;;;;;;8.74;100.00;97594.16;6200845;22;20011;-76
2022/11/23 08:59:11;;;;;;;0.00;0.00;;;;;;;8.53;100.00;97602.19;6222981;22;20008;-75
2022/11/23 09:01:49;;;;;;;0.10;0.10;;;;;;;8.49;100.00;97609.41;5984545;22;20396;-75
2022/11/23 09:04:16;;;;;;;0.00;0.00;;;;;;;8.48;100.00;97602.34;6205663;22;20033;-77
2022/11/23 09:06:47;;;;;;;0.10;0.10;;;;;;;8.89;100.00;97619.31;6254948;22;19991;-77
2022/11/23 09:09:13;;;;;;;0.13;0.13;;;;;;;10.71;100.00;97623.38;6275495;22;20090;-76
2022/11/23 09:11:43;;;;;;;0.32;0.32;;;;;;;12.61;100.00;97641.66;6231506;22;20007;-77
2022/11/23 09:14:26;;;;;;;;;;;;;;;;;;;;;
2022/11/23 09:17:10;;;;;;;;;;;;;;;;;;;;;
2022/11/23 09:19:36;;;;;;;0.00;0.00;;;;;;;15.12;100.00;97663.41;6311842;22;20023;-75
2022/11/23 09:22:02;;;;;;;0.00;0.00;;;;;;;15.78;100.00;97671.72;6312428;22;20018;-77
2022/11/23 09:24:51;;;;;;;0.10;0.10;;;;;;;16.51;100.00;97679.91;6283486;22;20011;-78
2022/11/23 09:27:19;;;;;;;0.10;0.10;;;;;;;16.95;100.00;97680.53;6286410;22;19991;-76
2022/11/23 09:29:54;;;;;;;0.00;0.00;;;;;;;17.74;100.00;97686.91;6279750;22;20010;-77
2022/11/23 09:32:29;;;;;;;0.00;0.00;;;;;;;18.23;100.00;97696.81;6283873;22;20079;-77
2022/11/23 09:35:01;;;;;;;0.00;0.00;;;;;;;18.40;99.63;97700.91;6283285;22;19998;-76
2022/11/23 09:37:36;;;;;;;0.00;0.00;;;;;;;18.59;97.53;97705.38;6309377;22;20011;-75
2022/11/23 09:40:02;;;;;;;0.00;0.00;;;;;;;18.40;84.75;97705.63;6255857;22;20010;-77
2022/11/23 09:42:49;;;;;;;0.00;0.00;;;;;;;17.94;97.10;97718.69;6283036;22;20003;-77
2022/11/23 09:45:45;;;;;;;0.00;0.00;;;;;;;18.03;87.53;97707.31;6282914;22;20005;-76
2022/11/23 09:48:53;;;;;;;0.00;0.00;;;;;;;17.84;85.65;97727.66;6308570;22;19999;-76
2022/11/23 09:51:22;;;;;;;0.00;0.00;;;;;;;17.73;84.87;97732.31;6199577;22;20014;-77
2022/11/23 09:54:05;;;;;;;0.00;0.00;;;;;;;18.39;100.00;97742.78;5772306;22;20438;-76
2022/11/23 09:56:36;;;;;;;0.00;0.00;;;;;;;19.20;78.48;97768.59;6256049;22;20003;-76
2022/11/23 09:59:16;;;;;;;0.00;0.00;;;;;;;19.10;86.02;97763.81;6282485;22;19999;-77
2022/11/23 10:01:46;;;;;;;0.00;0.00;;;;;;;19.77;82.24;97773.59;6278638;22;20003;-75
2022/11/23 10:04:20;;;;;;;0.00;0.00;;;;;;;20.16;81.31;97772.09;6279359;22;20007;-77
2022/11/23 10:06:57;;;;;;;0.00;0.00;;;;;;;20.50;81.47;97782.81;6280121;22;20007;-76
2022/11/23 10:09:25;;;;;;;0.00;0.00;;;;;;;20.60;80.56;97779.22;6310714;22;20015;-76
2022/11/23 10:12:05;;;;;;;0.00;0.00;;;;;;;21.09;80.52;97785.91;6308347;22;20004;-75
2022/11/23 10:14:46;;;;;;;0.00;0.00;;;;;;;21.27;75.11;97788.66;6280970;22;19999;-76
2022/11/23 10:17:50;;;;;;;0.00;0.00;;;;;;;21.25;71.84;97801.38;6284490;22;19999;-75
2022/11/23 10:20:32;;;;;;;0.00;0.00;;;;;;;19.81;73.57;97809.66;6284294;22;20006;-75
2022/11/23 10:23:06;;;;;;;0.00;0.00;;;;;;;19.78;78.41;97819.56;6284826;22;20089;-75
2022/11/23 10:25:43;;;;;;;0.00;0.00;;;;;;;20.35;77.10;97824.41;6259990;22;19999;-76
2022/11/23 10:28:23;;;;;;;0.00;0.00;;;;;;;21.35;73.33;97828.34;6311482;22;20072;-76
2022/11/23 10:31:12;;;;;;;0.00;0.00;;;;;;;22.02;76.01;97831.25;6284474;22;20003;-75
2022/11/23 10:34:07;;;;;;;0.00;0.00;;;;;;;22.49;71.60;97848.47;6279028;22;20015;-75
2022/11/23 10:36:56;;;;;;;0.00;0.00;;;;;;;22.78;70.84;97831.53;6284804;22;20338;-76
2022/11/23 10:39:26;;;;;;;0.10;0.10;;;;;;;22.54;66.11;97830.53;6285149;22;19999;-77
2022/11/23 10:41:53;;;;;;;0.00;0.00;;;;;;;23.12;69.55;97832.84;6257453;22;20030;-78
2022/11/23 10:44:38;;;;;;;0.17;0.17;;;;;;;23.29;65.19;97823.50;6259540;22;20421;-75
2022/11/23 10:47:08;;;;;;;;;;;;;;;23.23;64.87;97833.53;6288890;22;20356;-75
2022/11/23 10:49:34;;;;;;;0.00;0.00;;;;;;;23.51;72.08;97831.63;6284793;22;19911;-76
2022/11/23 10:52:26;;;;;;;0.00;0.00;;;;;;;24.41;68.33;97830.44;6285916;22;20041;-76
2022/11/23 10:55:00;;;;;;;0.00;0.00;;;;;;;23.61;72.11;97841.88;6313253;22;20003;-74
2022/11/23 10:57:32;;;;;;;0.00;0.00;;;;;;;22.26;67.59;97856.56;6285342;22;20430;-76
2022/11/23 11:00:15;;;;;;;0.00;0.00;;;;;;;21.03;69.84;97840.31;6311758;22;20010;-76
2022/11/23 11:02:46;;;;;;;0.10;0.10;;;;;;;18.82;71.15;97853.81;6286918;22;20004;-76
2022/11/23 11:05:24;;;;;;;0.10;0.10;;;;;;;16.11;74.10;97838.44;6286322;22;20143;-75
2022/11/23 11:07:51;;;;;;;0.10;0.10;;;;;;;14.55;81.30;97857.47;6287264;22;20007;-75
2022/11/23 11:10:51;;;;;;;0.00;0.00;;;;;;;13.84;83.63;97859.94;6260552;22;20027;-78
2022/11/23 11:13:31;;;;;;;0.00;0.00;;;;;;;14.53;92.12;97868.81;6284027;22;20069;-77
2022/11/23 11:16:02;;;;;;;0.00;0.00;;;;;;;16.85;91.76;97875.94;6287504;22;20098;-78
2022/11/23 11:18:36;;;;;;;0.00;0.00;;;;;;;20.26;76.76;97876.75;6286098;22;20064;-77
2022/11/23 11:21:32;;;;;;;0.00;0.00;;;;;;;22.76;74.94;97881.28;6286872;22;20006;-74
2022/11/23 11:24:20;;;;;;;0.00;0.00;;;;;;;24.41;69.36;97889.09;6289059;22;20018;-77
2022/11/23 11:27:11;;;;;;;;;;;;;;;;;;;;;
2022/11/23 11:29:48;;;;;;;0.55;0.55;;;;;;;25.67;63.33;97883.44;6310406;22;20445;-75
2022/11/23 11:32:28;;;;;;;0.00;0.00;;;;;;;25.74;63.34;97883.28;6285606;22;19990;-74
2022/11/23 11:35:10;;;;;;;0.00;0.00;;;;;;;25.86;65.94;97879.84;6282108;22;20006;-75
2022/11/23 11:37:43;;;;;;;0.10;0.10;;;;;;;26.34;66.25;97885.25;6304018;22;19999;-75
2022/11/23 11:40:20;;;;;;;0.00;0.00;;;;;;;27.02;64.17;97888.50;6246918;22;20039;-75
2022/11/23 11:43:06;;;;;;;0.10;0.10;;;;;;;27.22;61.29;97894.78;6312088;22;20414;-74
2022/11/23 11:45:39;;;;;;;0.10;0.10;;;;;;;27.25;59.75;97896.72;6310205;22;20002;-74
2022/11/23 11:48:26;;;;;;;0.40;0.40;;;;;;;26.84;59.79;97878.53;6281881;22;20030;-74
2022/11/23 11:50:55;;;;;;;0.15;0.15;;;;;;;26.24;55.99;97887.88;6282778;22;20077;-75
2022/11/23 11:53:30;;;;;;;0.00;0.00;;;;;;;26.21;60.44;97871.94;6280664;22;20011;-75